ダカール の空港の天気 - METARとTAF

レオポール・セダール・サンゴール国際空港 ( GOOY / DKR ) - セネガル ダカール
飛行場実況気象(Metar)
観測時間01/16 19:00 GMT (01/16 19:00 UTC)
風向・風速西 2m/s
視程10km以上
天気現象
なし
気温25℃
湿度69%
気圧1011hPa
METARGOOY 161900Z 28004KT CAVOK 25/19 Q1011
過去の天気等 Google飛行場航空写真 Wunderground天気予報

過去48時間のMETAR

飛行場予報(TAF)
発表時間: 1/16 17:00 GMT (1/16 17:00 UTC)
予報対象時間: 16日18時 GMT ~ 18日0時 GMT
風向・風速西 4m/s
視程10km以上
なし
TAF GOOY 161700Z 1618/1724 27008KT CAVOK